createdAt,value
2022-08-01T00:00:47.014Z,18.47
2022-08-01T00:03:38.342Z,15.57
2022-08-01T00:06:32.566Z,16.60
2022-08-01T00:09:23.905Z,17.13
2022-08-01T00:12:13.882Z,17.60
2022-08-01T00:15:02.956Z,15.27
2022-08-01T00:17:57.608Z,19.53
2022-08-01T00:20:47.646Z,15.13
2022-08-01T00:23:38.094Z,15.80
2022-08-01T00:26:27.161Z,13.37
2022-08-01T00:30:09.734Z,15.13
2022-08-01T00:32:31.351Z,17.40
2022-08-01T00:35:20.443Z,16.00
2022-08-01T00:38:12.995Z,17.40
2022-08-01T00:41:05.560Z,15.80
2022-08-01T00:43:55.442Z,15.97
2022-08-01T00:46:47.522Z,22.40
2022-08-01T00:49:37.328Z,18.33
2022-08-01T00:52:27.027Z,18.00
2022-08-01T00:55:23.339Z,23.33
2022-08-01T00:58:16.087Z,18.90
2022-08-01T01:01:08.818Z,17.00
2022-08-01T01:04:00.038Z,16.23
2022-08-01T01:06:58.586Z,19.53
2022-08-01T01:09:56.806Z,18.00
2022-08-01T01:12:50.167Z,17.03
2022-08-01T01:15:44.103Z,21.97
2022-08-01T01:18:36.386Z,19.40
2022-08-01T01:21:52.878Z,16.67
2022-08-01T01:24:48.324Z,25.90
2022-08-01T01:27:43.323Z,19.07
2022-08-01T01:30:35.071Z,15.80
2022-08-01T01:33:26.570Z,22.43
2022-08-01T01:36:20.260Z,16.90
2022-08-01T01:39:22.221Z,20.33
2022-08-01T01:42:14.595Z,22.90
2022-08-01T01:45:08.514Z,19.03
2022-08-01T01:48:10.795Z,19.10
2022-08-01T01:51:01.538Z,16.27
2022-08-01T01:53:56.470Z,21.00
2022-08-01T01:56:51.137Z,19.00
2022-08-01T01:59:41.655Z,22.53
2022-08-01T02:02:31.549Z,19.13
2022-08-01T02:05:37.831Z,19.73
2022-08-01T02:08:27.404Z,20.97
2022-08-01T02:11:23.238Z,20.77
2022-08-01T02:14:14.748Z,20.80
2022-08-01T02:17:05.176Z,18.20
2022-08-01T02:19:55.771Z,18.73
2022-08-01T02:22:49.588Z,24.27
2022-08-01T02:26:09.183Z,20.27
2022-08-01T02:28:59.600Z,21.47
2022-08-01T02:31:57.222Z,18.13
2022-08-01T02:34:57.445Z,16.80
2022-08-01T02:37:48.600Z,14.73
2022-08-01T02:40:38.688Z,11.67
2022-08-01T02:43:32.426Z,13.20
2022-08-01T02:46:26.150Z,12.37
2022-08-01T02:49:18.876Z,13.53
2022-08-01T02:52:20.003Z,19.33
2022-08-01T02:55:11.963Z,14.30
2022-08-01T02:58:04.471Z,13.40
2022-08-01T03:00:54.090Z,12.67
2022-08-01T03:03:45.062Z,14.73
2022-08-01T03:06:42.399Z,14.67
2022-08-01T03:09:39.257Z,14.17
2022-08-01T03:12:31.721Z,14.93
2022-08-01T03:15:24.820Z,20.80
2022-08-01T03:18:18.726Z,14.43
2022-08-01T03:21:11.928Z,11.67
2022-08-01T03:24:23.243Z,17.47
2022-08-01T03:27:19.004Z,18.80
2022-08-01T03:30:14.151Z,22.40
2022-08-01T03:33:09.439Z,14.87
2022-08-01T03:36:10.389Z,21.97
2022-08-01T03:39:01.138Z,18.80
2022-08-01T03:41:56.952Z,21.03
2022-08-01T03:44:51.044Z,15.57
2022-08-01T03:47:45.081Z,15.80
2022-08-01T03:50:38.200Z,14.50
2022-08-01T03:53:29.580Z,13.20
2022-08-01T03:56:21.806Z,12.80
2022-08-01T03:59:14.576Z,12.47
2022-08-01T04:02:07.962Z,14.37
2022-08-01T04:05:00.469Z,15.23
2022-08-01T04:07:57.095Z,14.87
2022-08-01T04:10:46.524Z,12.50
2022-08-01T04:13:44.329Z,9.90
2022-08-01T04:16:34.208Z,9.30
2022-08-01T04:19:26.462Z,11.10
2022-08-01T04:22:18.101Z,10.30
2022-08-01T04:25:10.141Z,9.30
2022-08-01T04:28:00.097Z,9.00
2022-08-01T04:30:51.037Z,9.67
2022-08-01T04:33:44.089Z,9.70
2022-08-01T04:36:35.982Z,10.00
2022-08-01T04:39:32.222Z,11.43
2022-08-01T04:42:33.343Z,9.90
2022-08-01T04:45:26.558Z,12.30
2022-08-01T04:48:17.557Z,12.23
2022-08-01T04:51:07.017Z,11.00
2022-08-01T04:54:02.579Z,10.50
2022-08-01T04:56:57.878Z,9.10
2022-08-01T04:59:47.371Z,11.53
2022-08-01T05:02:38.017Z,14.77
2022-08-01T05:05:33.868Z,10.97
2022-08-01T05:08:25.608Z,12.43
2022-08-01T05:11:30.279Z,12.17
2022-08-01T05:14:25.028Z,8.30
2022-08-01T05:17:21.875Z,9.23
2022-08-01T05:20:11.632Z,14.13
2022-08-01T05:23:10.349Z,8.93
2022-08-01T05:26:06.609Z,14.00
2022-08-01T05:29:22.714Z,8.40
2022-08-01T05:32:14.683Z,13.10
2022-08-01T05:35:04.364Z,12.70
2022-08-01T05:37:53.866Z,9.83
2022-08-01T05:40:43.272Z,7.87
2022-08-01T05:43:33.921Z,8.30
2022-08-01T05:46:27.662Z,8.77
2022-08-01T05:49:26.435Z,9.80
2022-08-01T05:52:19.093Z,13.13
2022-08-01T05:55:10.370Z,6.57
2022-08-01T05:58:00.166Z,9.40
2022-08-01T06:00:58.817Z,7.40
2022-08-01T06:03:51.034Z,7.93
2022-08-01T06:06:49.120Z,6.90
2022-08-01T06:09:41.855Z,10.60
2022-08-01T06:12:44.943Z,7.83
2022-08-01T06:15:34.842Z,7.53
2022-08-01T06:18:40.461Z,6.43
2022-08-01T06:21:58.263Z,7.80
2022-08-01T06:24:52.203Z,5.97
2022-08-01T06:27:48.246Z,8.20
2022-08-01T06:30:38.515Z,8.90
2022-08-01T06:33:34.000Z,6.43
2022-08-01T06:36:26.092Z,5.70
2022-08-01T06:39:18.799Z,7.77
2022-08-01T06:42:15.969Z,7.80
2022-08-01T06:45:05.168Z,7.27
2022-08-01T06:48:06.338Z,5.73
2022-08-01T06:51:16.485Z,6.00
2022-08-01T06:54:17.875Z,6.60
2022-08-01T06:57:18.812Z,5.87
2022-08-01T07:00:25.113Z,9.87
2022-08-01T07:03:19.826Z,8.33
2022-08-01T07:06:10.571Z,11.50
2022-08-01T07:09:07.412Z,10.63
2022-08-01T07:12:00.212Z,9.80
2022-08-01T07:14:50.815Z,14.30
2022-08-01T07:17:42.576Z,9.80
2022-08-01T07:20:36.280Z,8.67
2022-08-01T07:23:46.141Z,8.47
2022-08-01T07:26:35.508Z,7.67
2022-08-01T07:29:30.758Z,8.43
2022-08-01T07:32:21.531Z,4.87
2022-08-01T07:35:13.460Z,5.30
2022-08-01T07:38:02.912Z,6.40
2022-08-01T07:40:55.895Z,5.60
2022-08-01T07:43:53.246Z,5.00
2022-08-01T07:46:45.698Z,5.97
2022-08-01T07:49:40.585Z,5.25
2022-08-01T07:52:32.381Z,3.47
2022-08-01T07:55:27.828Z,4.43
2022-08-01T07:58:16.968Z,3.40
2022-08-01T08:01:06.206Z,4.07
2022-08-01T08:03:55.382Z,4.03
2022-08-01T08:06:52.740Z,4.68
2022-08-01T08:09:44.164Z,3.90
2022-08-01T08:12:47.424Z,4.93
2022-08-01T08:15:38.003Z,4.90
2022-08-01T08:18:27.511Z,4.47
2022-08-01T08:21:23.546Z,4.18
2022-08-01T08:24:27.378Z,7.47
2022-08-01T08:27:19.769Z,3.95
2022-08-01T08:30:10.476Z,4.23
2022-08-01T08:33:00.930Z,3.00
2022-08-01T08:35:54.298Z,3.33
2022-08-01T08:38:46.262Z,3.40
2022-08-01T08:41:38.024Z,3.40
2022-08-01T08:44:29.589Z,4.93
2022-08-01T08:47:24.450Z,4.43
2022-08-01T08:50:13.618Z,5.30
2022-08-01T08:53:06.599Z,4.57
2022-08-01T08:55:56.747Z,4.30
2022-08-01T08:58:48.079Z,3.28
2022-08-01T09:01:37.208Z,2.90
2022-08-01T09:04:29.182Z,2.95
2022-08-01T09:07:18.314Z,3.35
2022-08-01T09:10:08.000Z,2.38
2022-08-01T09:13:06.744Z,2.78
2022-08-01T09:16:00.001Z,2.22
2022-08-01T09:18:53.787Z,2.50
2022-08-01T09:21:57.938Z,2.45
2022-08-01T09:24:59.908Z,2.30
2022-08-01T09:27:49.223Z,2.00
2022-08-01T09:30:43.618Z,2.40
2022-08-01T09:33:49.002Z,2.42
2022-08-01T09:36:49.337Z,2.38
2022-08-01T09:39:41.326Z,2.13
2022-08-01T09:42:31.009Z,2.00
2022-08-01T09:45:41.700Z,1.80
2022-08-01T09:48:38.019Z,1.60
2022-08-01T09:51:57.855Z,1.50
2022-08-01T09:54:46.370Z,1.60
2022-08-01T09:57:35.520Z,3.70
2022-08-01T10:00:44.458Z,1.58
2022-08-01T10:03:34.686Z,2.70
2022-08-01T10:06:28.534Z,6.38
2022-08-01T10:09:40.258Z,1.45
2022-08-01T10:12:30.450Z,2.40
2022-08-01T10:15:22.179Z,1.20
2022-08-01T10:18:26.851Z,3.08
2022-08-01T10:21:44.044Z,2.10
2022-08-01T10:24:33.517Z,1.00
2022-08-01T10:27:37.795Z,1.63
2022-08-01T10:30:27.713Z,1.00
2022-08-01T10:33:51.547Z,1.10
2022-08-01T10:36:32.588Z,1.10
2022-08-01T10:39:22.002Z,1.05
2022-08-01T10:42:15.608Z,2.10
2022-08-01T10:45:05.746Z,1.83
2022-08-01T10:48:01.280Z,1.15
2022-08-01T10:50:51.835Z,1.10
2022-08-01T10:53:48.829Z,1.08
2022-08-01T10:56:41.944Z,0.90
2022-08-01T10:59:50.742Z,1.00
2022-08-01T11:02:45.546Z,1.20
2022-08-01T11:05:36.212Z,0.90
2022-08-01T11:08:26.854Z,1.10
2022-08-01T11:11:16.329Z,0.90
2022-08-01T11:14:10.445Z,0.90
2022-08-01T11:17:21.149Z,0.90
2022-08-01T11:20:11.874Z,1.17
2022-08-01T11:23:28.674Z,4.07
2022-08-01T11:26:18.693Z,1.00
2022-08-01T11:29:22.795Z,3.95
2022-08-01T11:32:31.258Z,1.00
2022-08-01T11:35:34.403Z,1.30
2022-08-01T11:38:28.844Z,1.67
2022-08-01T11:41:21.151Z,1.00
2022-08-01T11:44:30.300Z,1.42
2022-08-01T11:47:21.272Z,1.00
2022-08-01T11:50:32.404Z,1.10
2022-08-01T11:53:22.163Z,1.00
2022-08-01T11:56:11.185Z,1.10
2022-08-01T11:59:01.942Z,1.17
2022-08-01T12:01:52.539Z,1.23
2022-08-01T12:04:49.336Z,1.10
2022-08-01T12:07:41.461Z,1.00
2022-08-01T12:10:49.726Z,1.38
2022-08-01T12:13:44.237Z,1.10
2022-08-01T12:16:34.457Z,1.00
2022-08-01T12:19:26.463Z,3.28
2022-08-01T12:22:16.475Z,1.00
2022-08-01T12:25:10.555Z,1.08
2022-08-01T12:28:02.800Z,1.42
2022-08-01T12:30:52.423Z,1.20
2022-08-01T12:33:41.364Z,1.50
2022-08-01T12:36:30.982Z,1.50
2022-08-01T12:39:20.001Z,1.27
2022-08-01T12:42:11.822Z,1.20
2022-08-01T12:45:00.989Z,1.70
2022-08-01T12:47:50.394Z,1.25
2022-08-01T12:50:40.696Z,1.70
2022-08-01T12:53:40.713Z,1.70
2022-08-01T12:56:34.030Z,1.30
2022-08-01T12:59:27.391Z,1.20
2022-08-01T13:02:16.115Z,1.38
2022-08-01T13:05:05.655Z,1.55
2022-08-01T13:07:56.390Z,2.05
2022-08-01T13:10:45.818Z,3.85
2022-08-01T13:13:40.631Z,1.58
2022-08-01T13:16:56.002Z,1.30
2022-08-01T13:19:45.333Z,1.60
2022-08-01T13:22:34.823Z,2.03
2022-08-01T13:25:26.061Z,3.15
2022-08-01T13:28:19.843Z,2.33
2022-08-01T13:31:11.671Z,2.28
2022-08-01T13:34:02.489Z,2.78
2022-08-01T13:36:51.496Z,5.03
2022-08-01T13:39:45.038Z,1.92
2022-08-01T13:42:33.982Z,2.05
2022-08-01T13:45:23.160Z,1.42
2022-08-01T13:48:19.061Z,1.75
2022-08-01T13:51:21.801Z,2.35
2022-08-01T13:54:11.571Z,1.67
2022-08-01T13:57:01.097Z,2.17
2022-08-01T13:59:50.009Z,2.08
2022-08-01T14:02:38.905Z,2.10
2022-08-01T14:05:27.792Z,2.92
2022-08-01T14:08:18.101Z,3.15
2022-08-01T14:11:07.593Z,2.50
2022-08-01T14:13:56.671Z,2.30
2022-08-01T14:16:46.739Z,1.40
2022-08-01T14:19:38.909Z,1.55
2022-08-01T14:22:29.367Z,1.83
2022-08-01T14:25:24.002Z,2.00
2022-08-01T14:28:30.983Z,2.20
2022-08-01T14:31:19.920Z,1.73
2022-08-01T14:34:09.598Z,2.30
2022-08-01T14:36:58.578Z,1.60
2022-08-01T14:39:54.350Z,1.35
2022-08-01T14:42:45.473Z,1.70
2022-08-01T14:45:34.745Z,1.48
2022-08-01T14:48:23.662Z,5.95
2022-08-01T14:51:12.663Z,2.42
2022-08-01T14:54:01.811Z,2.45
2022-08-01T14:56:54.040Z,2.28
2022-08-01T14:59:44.295Z,2.08
2022-08-01T15:02:33.236Z,2.40
2022-08-01T15:05:22.448Z,3.13
2022-08-01T15:08:12.479Z,3.03
2022-08-01T15:11:01.980Z,2.20
2022-08-01T15:14:12.123Z,2.08
2022-08-01T15:17:02.391Z,3.95
2022-08-01T15:19:53.813Z,3.78
2022-08-01T15:22:42.677Z,2.15
2022-08-01T15:25:41.308Z,2.30
2022-08-01T15:28:31.111Z,1.88
2022-08-01T15:31:20.022Z,2.08
2022-08-01T15:34:10.281Z,2.00
2022-08-01T15:36:59.741Z,2.75
2022-08-01T15:39:48.587Z,4.20
2022-08-01T15:42:37.504Z,4.03
2022-08-01T15:48:39.975Z,2.20
2022-08-01T15:51:30.482Z,2.05
2022-08-01T15:54:19.472Z,2.08
2022-08-01T15:57:09.384Z,2.95
2022-08-01T15:59:58.335Z,4.25
2022-08-01T16:02:47.394Z,2.00
2022-08-01T16:05:42.937Z,2.72
2022-08-01T16:08:34.439Z,2.40
2022-08-01T16:11:26.822Z,1.92
2022-08-01T16:14:15.767Z,2.08
2022-08-01T16:17:04.723Z,2.38
2022-08-01T16:19:53.810Z,3.08
2022-08-01T16:22:42.715Z,3.50
2022-08-01T16:25:34.833Z,2.55
2022-08-01T16:28:23.832Z,5.22
2022-08-01T16:31:21.967Z,3.15
2022-08-01T16:34:23.567Z,4.55
2022-08-01T16:37:12.886Z,5.45
2022-08-01T16:40:01.806Z,3.33
2022-08-01T16:42:52.857Z,3.53
2022-08-01T16:45:47.886Z,4.72
2022-08-01T16:48:36.879Z,5.45
2022-08-01T16:51:25.796Z,3.30
2022-08-01T16:54:24.569Z,1.67
2022-08-01T16:57:15.686Z,7.23
2022-08-01T17:00:08.457Z,3.73
2022-08-01T17:02:57.574Z,3.20
2022-08-01T17:05:46.563Z,2.27
2022-08-01T17:08:35.872Z,4.20
2022-08-01T17:11:35.727Z,3.80
2022-08-01T17:14:24.677Z,2.97
2022-08-01T17:17:15.138Z,2.90
2022-08-01T17:20:04.360Z,2.70
2022-08-01T17:22:53.354Z,3.37
2022-08-01T17:25:42.799Z,3.30
2022-08-01T17:28:31.809Z,2.70
2022-08-01T17:31:20.846Z,5.53
2022-08-01T17:34:11.276Z,6.57
2022-08-01T17:37:00.240Z,3.23
2022-08-01T17:39:49.221Z,3.23
2022-08-01T17:42:39.826Z,2.93
2022-08-01T17:45:29.483Z,4.07
2022-08-01T17:48:18.493Z,5.27
2022-08-01T17:51:08.773Z,3.83
2022-08-01T17:53:58.338Z,3.03
2022-08-01T17:56:47.455Z,3.20
2022-08-01T17:59:36.415Z,3.40
2022-08-01T18:02:25.667Z,2.97
2022-08-01T18:05:15.666Z,4.50
2022-08-01T18:08:06.599Z,5.57
2022-08-01T18:10:56.569Z,3.70
2022-08-01T18:13:45.717Z,3.93
2022-08-01T18:16:34.846Z,2.57
2022-08-01T18:19:23.858Z,3.07
2022-08-01T18:22:31.369Z,7.43
2022-08-01T18:25:23.496Z,3.23
2022-08-01T18:28:23.315Z,8.53
2022-08-01T18:31:21.740Z,2.37
2022-08-01T18:34:10.635Z,2.50
2022-08-01T18:36:59.782Z,3.07
2022-08-01T18:39:50.558Z,4.97
2022-08-01T18:42:42.396Z,1.93
2022-08-01T18:45:32.817Z,2.90
2022-08-01T18:48:21.717Z,4.03
2022-08-01T18:51:11.576Z,4.90
2022-08-01T18:54:00.777Z,4.33
2022-08-01T18:56:49.665Z,7.73
2022-08-01T18:59:39.929Z,4.13
2022-08-01T19:02:29.119Z,7.63
2022-08-01T19:05:18.150Z,3.23
2022-08-01T19:08:08.238Z,4.40
2022-08-01T19:10:57.561Z,10.07
2022-08-01T19:13:46.582Z,7.60
2022-08-01T19:16:36.967Z,3.83
2022-08-01T19:19:28.106Z,6.00
2022-08-01T19:22:18.532Z,4.90
2022-08-01T19:25:07.891Z,4.73
2022-08-01T19:27:58.031Z,6.70
2022-08-01T19:30:47.417Z,5.83
2022-08-01T19:33:44.547Z,5.43
2022-08-01T19:36:33.817Z,8.00
2022-08-01T19:39:23.659Z,5.33
2022-08-01T19:42:14.258Z,7.13
2022-08-01T19:45:05.405Z,4.40
2022-08-01T19:47:56.840Z,3.50
2022-08-01T19:50:48.743Z,5.77
2022-08-01T19:53:38.514Z,5.10
2022-08-01T19:56:29.909Z,4.30
2022-08-01T19:59:19.783Z,6.57
2022-08-01T20:02:09.003Z,4.60
2022-08-01T20:04:59.707Z,3.43
2022-08-01T20:07:50.098Z,3.67
2022-08-01T20:10:39.188Z,3.60
2022-08-01T20:13:39.120Z,4.37
2022-08-01T20:16:29.404Z,2.10
2022-08-01T20:19:18.871Z,10.83
2022-08-01T20:22:08.618Z,3.93
2022-08-01T20:25:00.610Z,4.17
2022-08-01T20:27:49.661Z,4.97
2022-08-01T20:30:39.787Z,2.83
2022-08-01T20:33:29.501Z,7.17
2022-08-01T20:36:25.619Z,5.20
2022-08-01T20:39:15.727Z,8.33
2022-08-01T20:42:07.640Z,6.23
2022-08-01T20:44:57.537Z,4.77
2022-08-01T20:47:48.256Z,3.87
2022-08-01T20:50:56.456Z,3.93
2022-08-01T20:53:46.835Z,5.37
2022-08-01T20:56:38.361Z,4.70
2022-08-01T20:59:40.057Z,8.63
2022-08-01T21:02:51.552Z,5.00
2022-08-01T21:05:55.912Z,4.87
2022-08-01T21:08:49.866Z,6.13
2022-08-01T21:11:41.083Z,4.67
2022-08-01T21:14:37.163Z,12.63
2022-08-01T21:17:33.948Z,7.50
2022-08-01T21:20:28.753Z,2.57
2022-08-01T21:23:23.044Z,5.13
2022-08-01T21:26:12.223Z,15.50
2022-08-01T21:29:02.437Z,76.90
2022-08-01T21:32:11.490Z,4.83
2022-08-01T21:35:02.145Z,98.13
2022-08-01T21:37:52.136Z,179.23
2022-08-01T21:40:41.963Z,103.27
2022-08-01T21:43:33.422Z,6.13
2022-08-01T21:46:23.164Z,117.80
2022-08-01T21:49:14.365Z,93.53
2022-08-01T21:52:08.654Z,272.63
2022-08-01T21:55:02.671Z,313.13
2022-08-01T21:58:05.666Z,364.33
2022-08-01T22:00:57.262Z,4.50
2022-08-01T22:03:47.821Z,366.63
2022-08-01T22:06:39.003Z,478.47
2022-08-01T22:09:28.356Z,466.93
2022-08-01T22:12:19.144Z,486.30
2022-08-01T22:15:09.652Z,470.60
2022-08-01T22:17:59.324Z,564.67
2022-08-01T22:20:48.929Z,550.47
2022-08-01T22:23:39.442Z,498.23
2022-08-01T22:26:29.700Z,556.37
2022-08-01T22:29:18.775Z,544.63
2022-08-01T22:32:08.338Z,437.53
2022-08-01T22:34:58.756Z,495.00
2022-08-01T22:37:57.338Z,539.00
2022-08-01T22:40:50.860Z,502.53
2022-08-01T22:43:41.186Z,504.23
2022-08-01T22:46:34.264Z,503.77
2022-08-01T22:49:28.681Z,482.63
2022-08-01T22:52:19.560Z,454.30
2022-08-01T22:55:10.662Z,448.70
2022-08-01T22:58:03.573Z,399.07
2022-08-01T23:00:55.757Z,389.20
2022-08-01T23:03:47.825Z,317.60
2022-08-01T23:06:40.341Z,252.77
2022-08-01T23:09:52.847Z,275.50
2022-08-01T23:12:38.970Z,271.43
2022-08-01T23:15:29.944Z,225.40
2022-08-01T23:18:19.928Z,197.97
2022-08-01T23:21:09.039Z,180.07
2022-08-01T23:23:58.600Z,153.73
2022-08-01T23:26:48.914Z,154.10
2022-08-01T23:29:37.882Z,176.50
2022-08-01T23:32:28.226Z,138.33
2022-08-01T23:35:17.266Z,151.30
2022-08-01T23:38:06.410Z,136.33
2022-08-01T23:40:55.298Z,148.70
2022-08-01T23:43:52.293Z,133.60
2022-08-01T23:46:41.542Z,117.93
2022-08-01T23:49:32.029Z,127.73
2022-08-01T23:52:21.683Z,72.70
2022-08-01T23:55:14.783Z,259.07
2022-08-01T23:58:06.051Z,237.73
